sensor_id;sensor_type;location;lat;lon;timestamp;pressure;altitude;pressure_sealevel;temperature;humidity
25664;BME280;13522;50.018;20.014;2023-07-22T00:01:50;98291.38;;;18.48;100.00
25664;BME280;13522;50.018;20.014;2023-07-22T00:05:02;98300.08;;;18.44;100.00
25664;BME280;13522;50.018;20.014;2023-07-22T00:08:16;98298.41;;;18.43;100.00
25664;BME280;13522;50.018;20.014;2023-07-22T00:11:29;98300.86;;;18.38;100.00
25664;BME280;13522;50.018;20.014;2023-07-22T00:14:42;98304.15;;;18.33;100.00
25664;BME280;13522;50.018;20.014;2023-07-22T00:17:54;98302.06;;;18.29;100.00
25664;BME280;13522;50.018;20.014;2023-07-22T00:21:07;98306.63;;;18.28;100.00
25664;BME280;13522;50.018;20.014;2023-07-22T00:24:19;98311.15;;;18.21;100.00
25664;BME280;13522;50.018;20.014;2023-07-22T00:27:32;98307.41;;;18.15;100.00
25664;BME280;13522;50.018;20.014;2023-07-22T00:30:44;98292.93;;;18.16;100.00
25664;BME280;13522;50.018;20.014;2023-07-22T00:33:58;98301.41;;;18.13;100.00
25664;BME280;13522;50.018;20.014;2023-07-22T00:37:11;98302.42;;;18.12;100.00
25664;BME280;13522;50.018;20.014;2023-07-22T00:40:24;98291.67;;;18.12;100.00
25664;BME280;13522;50.018;20.014;2023-07-22T00:43:36;98297.69;;;18.08;100.00
25664;BME280;13522;50.018;20.014;2023-07-22T00:46:50;98292.91;;;18.03;100.00
25664;BME280;13522;50.018;20.014;2023-07-22T00:50:08;98284.84;;;18.03;100.00
25664;BME280;13522;50.018;20.014;2023-07-22T00:53:20;98282.96;;;17.97;100.00
25664;BME280;13522;50.018;20.014;2023-07-22T00:56:36;98284.39;;;17.93;100.00
25664;BME280;13522;50.018;20.014;2023-07-22T00:59:49;98286.24;;;17.93;100.00
25664;BME280;13522;50.018;20.014;2023-07-22T01:03:01;98281.67;;;17.87;100.00
25664;BME280;13522;50.018;20.014;2023-07-22T01:06:16;98267.19;;;17.81;100.00
25664;BME280;13522;50.018;20.014;2023-07-22T01:09:35;98256.69;;;17.86;100.00
25664;BME280;13522;50.018;20.014;2023-07-22T01:12:48;98258.53;;;17.86;100.00
25664;BME280;13522;50.018;20.014;2023-07-22T01:16:01;98249.85;;;17.84;100.00
25664;BME280;13522;50.018;20.014;2023-07-22T01:19:16;98237.44;;;17.83;100.00
25664;BME280;13522;50.018;20.014;2023-07-22T01:22:30;98234.57;;;17.84;100.00
25664;BME280;13522;50.018;20.014;2023-07-22T01:25:44;98234.95;;;17.81;100.00
25664;BME280;13522;50.018;20.014;2023-07-22T01:29:05;98237.02;;;17.79;100.00
25664;BME280;13522;50.018;20.014;2023-07-22T01:32:17;98237.23;;;17.78;100.00
25664;BME280;13522;50.018;20.014;2023-07-22T01:35:30;98233.70;;;17.77;100.00
25664;BME280;13522;50.018;20.014;2023-07-22T01:38:42;98225.02;;;17.75;100.00
25664;BME280;13522;50.018;20.014;2023-07-22T01:41:55;98230.18;;;17.77;100.00
25664;BME280;13522;50.018;20.014;2023-07-22T01:45:09;98244.03;;;17.74;100.00
25664;BME280;13522;50.018;20.014;2023-07-22T01:48:22;98255.61;;;17.74;100.00
25664;BME280;13522;50.018;20.014;2023-07-22T01:51:34;98248.56;;;17.73;100.00
25664;BME280;13522;50.018;20.014;2023-07-22T01:54:47;98249.82;;;17.77;100.00
25664;BME280;13522;50.018;20.014;2023-07-22T01:58:00;98255.61;;;17.81;100.00
25664;BME280;13522;50.018;20.014;2023-07-22T02:01:13;98255.82;;;17.79;100.00
25664;BME280;13522;50.018;20.014;2023-07-22T02:04:26;98262.87;;;17.80;100.00
25664;BME280;13522;50.018;20.014;2023-07-22T02:07:39;98272.98;;;17.85;100.00
25664;BME280;13522;50.018;20.014;2023-07-22T02:10:51;98276.13;;;17.88;100.00
25664;BME280;13522;50.018;20.014;2023-07-22T02:14:04;98276.75;;;17.90;100.00
25664;BME280;13522;50.018;20.014;2023-07-22T02:17:17;98280.03;;;17.86;100.00
25664;BME280;13522;50.018;20.014;2023-07-22T02:20:29;98285.20;;;17.87;100.00
25664;BME280;13522;50.018;20.014;2023-07-22T02:23:42;98288.69;;;17.81;100.00
25664;BME280;13522;50.018;20.014;2023-07-22T02:26:54;98282.30;;;17.82;100.00
25664;BME280;13522;50.018;20.014;2023-07-22T02:30:09;98280.41;;;17.83;100.00
25664;BME280;13522;50.018;20.014;2023-07-22T02:33:22;98286.00;;;17.81;100.00
25664;BME280;13522;50.018;20.014;2023-07-22T02:36:35;98289.09;;;17.78;100.00
25664;BME280;13522;50.018;20.014;2023-07-22T02:39:47;98291.78;;;17.78;100.00
25664;BME280;13522;50.018;20.014;2023-07-22T02:42:59;98292.17;;;17.75;100.00
25664;BME280;13522;50.018;20.014;2023-07-22T02:46:12;98289.02;;;17.65;100.00
25664;BME280;13522;50.018;20.014;2023-07-22T02:49:25;98295.82;;;17.61;100.00
25664;BME280;13522;50.018;20.014;2023-07-22T02:52:37;98299.55;;;17.60;100.00
25664;BME280;13522;50.018;20.014;2023-07-22T02:55:49;98300.56;;;17.59;100.00
25664;BME280;13522;50.018;20.014;2023-07-22T02:59:01;98297.24;;;17.57;100.00
25664;BME280;13522;50.018;20.014;2023-07-22T03:02:15;98298.67;;;17.53;100.00
25664;BME280;13522;50.018;20.014;2023-07-22T03:05:28;98294.72;;;17.49;100.00
25664;BME280;13522;50.018;20.014;2023-07-22T03:08:42;98302.52;;;17.44;100.00
25664;BME280;13522;50.018;20.014;2023-07-22T03:11:55;98300.42;;;17.40;100.00
25664;BME280;13522;50.018;20.014;2023-07-22T03:15:09;98307.04;;;17.37;100.00
25664;BME280;13522;50.018;20.014;2023-07-22T03:18:22;98307.04;;;17.37;100.00
25664;BME280;13522;50.018;20.014;2023-07-22T03:21:34;98308.27;;;17.41;100.00
25664;BME280;13522;50.018;20.014;2023-07-22T03:24:47;98317.78;;;17.37;100.00
25664;BME280;13522;50.018;20.014;2023-07-22T03:28:00;98311.57;;;17.37;100.00
25664;BME280;13522;50.018;20.014;2023-07-22T03:31:15;98309.90;;;17.35;100.00
25664;BME280;13522;50.018;20.014;2023-07-22T03:34:28;98311.95;;;17.33;100.00
25664;BME280;13522;50.018;20.014;2023-07-22T03:37:41;98309.73;;;17.37;100.00
25664;BME280;13522;50.018;20.014;2023-07-22T03:40:54;98312.58;;;17.35;100.00
25664;BME280;13522;50.018;20.014;2023-07-22T03:44:06;98326.84;;;17.36;100.00
25664;BME280;13522;50.018;20.014;2023-07-22T03:47:20;98315.70;;;17.39;100.00
25664;BME280;13522;50.018;20.014;2023-07-22T03:50:33;98314.48;;;17.42;100.00
25664;BME280;13522;50.018;20.014;2023-07-22T03:53:45;98325.22;;;17.42;100.00
25664;BME280;13522;50.018;20.014;2023-07-22T03:56:57;98319.42;;;17.38;100.00
25664;BME280;13522;50.018;20.014;2023-07-22T04:00:11;98320.05;;;17.40;100.00
25664;BME280;13522;50.018;20.014;2023-07-22T04:03:24;98318.00;;;17.42;100.00
25664;BME280;13522;50.018;20.014;2023-07-22T04:06:36;98327.06;;;17.41;100.00
25664;BME280;13522;50.018;20.014;2023-07-22T04:09:49;98323.75;;;17.39;100.00
25664;BME280;13522;50.018;20.014;2023-07-22T04:13:02;98326.43;;;17.39;100.00
25664;BME280;13522;50.018;20.014;2023-07-22T04:16:14;98331.58;;;17.34;100.00
25664;BME280;13522;50.018;20.014;2023-07-22T04:19:26;98333.25;;;17.35;100.00
25664;BME280;13522;50.018;20.014;2023-07-22T04:22:39;98342.11;;;17.35;100.00
25664;BME280;13522;50.018;20.014;2023-07-22T04:25:51;98345.63;;;17.36;100.00
25664;BME280;13522;50.018;20.014;2023-07-22T04:29:04;98347.91;;;17.39;100.00
25664;BME280;13522;50.018;20.014;2023-07-22T04:32:18;98346.27;;;17.38;100.00
25664;BME280;13522;50.018;20.014;2023-07-22T04:35:32;98357.64;;;17.40;100.00
25664;BME280;13522;50.018;20.014;2023-07-22T04:38:47;98365.54;;;17.48;100.00
25664;BME280;13522;50.018;20.014;2023-07-22T04:41:59;98382.32;;;17.50;100.00
25664;BME280;13522;50.018;20.014;2023-07-22T04:45:12;98392.02;;;17.51;100.00
25664;BME280;13522;50.018;20.014;2023-07-22T04:48:24;98393.90;;;17.51;100.00
25664;BME280;13522;50.018;20.014;2023-07-22T04:51:37;98386.91;;;17.56;100.00
25664;BME280;13522;50.018;20.014;2023-07-22T04:54:49;98387.54;;;17.58;100.00
25664;BME280;13522;50.018;20.014;2023-07-22T04:58:02;98396.02;;;17.62;100.00
25664;BME280;13522;50.018;20.014;2023-07-22T05:01:15;98399.98;;;17.66;100.00
25664;BME280;13522;50.018;20.014;2023-07-22T05:04:27;98394.25;;;17.75;100.00
25664;BME280;13522;50.018;20.014;2023-07-22T05:07:40;98404.63;;;17.85;100.00
25664;BME280;13522;50.018;20.014;2023-07-22T05:10:54;98401.20;;;17.97;100.00
25664;BME280;13522;50.018;20.014;2023-07-22T05:14:07;98405.61;;;18.11;100.00
25664;BME280;13522;50.018;20.014;2023-07-22T05:17:19;98404.67;;;18.32;100.00
25664;BME280;13522;50.018;20.014;2023-07-22T05:20:31;98397.33;;;18.54;100.00
25664;BME280;13522;50.018;20.014;2023-07-22T05:23:44;98404.82;;;18.71;100.00
25664;BME280;13522;50.018;20.014;2023-07-22T05:26:56;98401.52;;;18.82;100.00
25664;BME280;13522;50.018;20.014;2023-07-22T05:30:11;98416.02;;;18.88;100.00
25664;BME280;13522;50.018;20.014;2023-07-22T05:33:25;98418.64;;;18.55;100.00
25664;BME280;13522;50.018;20.014;2023-07-22T05:36:37;98426.73;;;18.62;100.00
25664;BME280;13522;50.018;20.014;2023-07-22T05:39:50;98429.63;;;18.67;100.00
25664;BME280;13522;50.018;20.014;2023-07-22T05:43:02;98429.81;;;18.59;100.00
25664;BME280;13522;50.018;20.014;2023-07-22T05:46:14;98433.77;;;18.63;100.00
25664;BME280;13522;50.018;20.014;2023-07-22T05:49:27;98429.78;;;18.52;100.00
25664;BME280;13522;50.018;20.014;2023-07-22T05:52:39;98432.72;;;18.57;100.00
25664;BME280;13522;50.018;20.014;2023-07-22T05:55:52;98431.28;;;18.61;100.00
25664;BME280;13522;50.018;20.014;2023-07-22T05:59:04;98428.38;;;18.63;100.00
25664;BME280;13522;50.018;20.014;2023-07-22T06:02:18;98434.18;;;18.60;100.00
25664;BME280;13522;50.018;20.014;2023-07-22T06:05:30;98437.50;;;18.62;100.00
25664;BME280;13522;50.018;20.014;2023-07-22T06:08:43;98445.53;;;18.55;100.00
25664;BME280;13522;50.018;20.014;2023-07-22T06:11:55;98446.44;;;18.35;100.00
25664;BME280;13522;50.018;20.014;2023-07-22T06:15:09;98454.13;;;18.38;100.00
25664;BME280;13522;50.018;20.014;2023-07-22T06:18:21;98453.50;;;18.42;100.00
25664;BME280;13522;50.018;20.014;2023-07-22T06:21:34;98460.20;;;18.53;100.00
25664;BME280;13522;50.018;20.014;2023-07-22T06:24:46;98451.30;;;18.52;100.00
25664;BME280;13522;50.018;20.014;2023-07-22T06:27:59;98452.02;;;18.80;100.00
25664;BME280;13522;50.018;20.014;2023-07-22T06:31:11;98454.34;;;19.10;100.00
25664;BME280;13522;50.018;20.014;2023-07-22T06:34:24;98455.86;;;19.51;100.00
25664;BME280;13522;50.018;20.014;2023-07-22T06:37:37;98457.92;;;19.88;100.00
25664;BME280;13522;50.018;20.014;2023-07-22T06:40:49;98461.64;;;19.87;100.00
25664;BME280;13522;50.018;20.014;2023-07-22T06:44:05;98457.48;;;19.98;100.00
25664;BME280;13522;50.018;20.014;2023-07-22T06:47:17;98461.81;;;20.12;100.00
25664;BME280;13522;50.018;20.014;2023-07-22T06:50:29;98471.11;;;20.36;100.00
25664;BME280;13522;50.018;20.014;2023-07-22T06:53:42;98481.91;;;20.29;100.00
25664;BME280;13522;50.018;20.014;2023-07-22T06:56:54;98481.94;;;20.10;100.00
25664;BME280;13522;50.018;20.014;2023-07-22T07:00:09;98455.45;;;19.74;100.00
25664;BME280;13522;50.018;20.014;2023-07-22T07:03:24;98485.91;;;19.94;100.00
25664;BME280;13522;50.018;20.014;2023-07-22T07:06:37;98486.92;;;20.06;100.00
25664;BME280;13522;50.018;20.014;2023-07-22T07:09:49;98494.61;;;19.89;100.00
25664;BME280;13522;50.018;20.014;2023-07-22T07:13:02;98497.49;;;20.08;100.00
25664;BME280;13522;50.018;20.014;2023-07-22T07:16:26;98507.66;;;20.12;100.00
25664;BME280;13522;50.018;20.014;2023-07-22T07:19:40;98502.30;;;19.93;100.00
25664;BME280;13522;50.018;20.014;2023-07-22T07:22:52;98508.42;;;20.52;99.30
25664;BME280;13522;50.018;20.014;2023-07-22T07:26:17;98506.11;;;21.06;96.20
25664;BME280;13522;50.018;20.014;2023-07-22T07:29:29;98510.38;;;21.51;94.69
25664;BME280;13522;50.018;20.014;2023-07-22T07:32:44;98514.14;;;21.50;93.21
25664;BME280;13522;50.018;20.014;2023-07-22T07:35:56;98519.02;;;21.67;90.06
25664;BME280;13522;50.018;20.014;2023-07-22T07:39:09;98517.44;;;22.08;89.02
25664;BME280;13522;50.018;20.014;2023-07-22T07:42:22;98514.09;;;22.49;86.06
25664;BME280;13522;50.018;20.014;2023-07-22T07:45:38;98514.83;;;22.92;83.97
25664;BME280;13522;50.018;20.014;2023-07-22T07:48:51;98517.19;;;23.18;83.81
25664;BME280;13522;50.018;20.014;2023-07-22T07:52:06;98516.06;;;23.67;80.95
25664;BME280;13522;50.018;20.014;2023-07-22T07:55:18;98510.61;;;24.20;77.89
25664;BME280;13522;50.018;20.014;2023-07-22T07:58:31;98521.53;;;24.48;77.40
25664;BME280;13522;50.018;20.014;2023-07-22T08:01:43;98528.23;;;24.80;75.13
25664;BME280;13522;50.018;20.014;2023-07-22T08:04:56;98531.33;;;24.61;77.91
25664;BME280;13522;50.018;20.014;2023-07-22T08:08:09;98538.92;;;24.24;77.58
25664;BME280;13522;50.018;20.014;2023-07-22T08:11:21;98551.18;;;24.15;77.65
25664;BME280;13522;50.018;20.014;2023-07-22T08:14:33;98553.61;;;23.41;76.23
25664;BME280;13522;50.018;20.014;2023-07-22T08:17:46;98563.34;;;23.12;77.42
25664;BME280;13522;50.018;20.014;2023-07-22T08:20:59;98559.15;;;23.46;76.74
25664;BME280;13522;50.018;20.014;2023-07-22T08:24:12;98567.00;;;23.36;76.01
25664;BME280;13522;50.018;20.014;2023-07-22T08:27:25;98557.61;;;23.91;72.92
25664;BME280;13522;50.018;20.014;2023-07-22T08:30:38;98563.70;;;24.04;72.44
25664;BME280;13522;50.018;20.014;2023-07-22T08:33:50;98582.95;;;24.26;73.43
25664;BME280;13522;50.018;20.014;2023-07-22T08:37:03;98578.00;;;24.46;72.41
25664;BME280;13522;50.018;20.014;2023-07-22T08:40:16;98590.05;;;24.73;70.45
25664;BME280;13522;50.018;20.014;2023-07-22T08:43:29;98588.61;;;24.59;70.55
25664;BME280;13522;50.018;20.014;2023-07-22T08:46:43;98596.42;;;24.44;69.95
25664;BME280;13522;50.018;20.014;2023-07-22T08:49:58;98598.05;;;24.34;70.80
25664;BME280;13522;50.018;20.014;2023-07-22T08:53:11;98598.30;;;24.78;70.77
25664;BME280;13522;50.018;20.014;2023-07-22T08:56:26;98605.86;;;25.28;71.34
25664;BME280;13522;50.018;20.014;2023-07-22T08:59:39;98597.98;;;25.15;69.89
25664;BME280;13522;50.018;20.014;2023-07-22T09:02:53;98603.17;;;25.84;68.28
25664;BME280;13522;50.018;20.014;2023-07-22T09:06:07;98596.12;;;26.33;68.05
25664;BME280;13522;50.018;20.014;2023-07-22T09:09:20;98594.63;;;26.09;65.19
25664;BME280;13522;50.018;20.014;2023-07-22T09:12:33;98601.56;;;26.49;69.84
25664;BME280;13522;50.018;20.014;2023-07-22T09:15:47;98600.16;;;27.23;65.21
25664;BME280;13522;50.018;20.014;2023-07-22T09:19:00;98597.63;;;27.17;62.20
25664;BME280;13522;50.018;20.014;2023-07-22T09:22:13;98607.52;;;27.23;61.35
25664;BME280;13522;50.018;20.014;2023-07-22T09:25:27;98597.80;;;27.54;59.77
25664;BME280;13522;50.018;20.014;2023-07-22T09:28:52;98601.03;;;26.86;63.80
25664;BME280;13522;50.018;20.014;2023-07-22T09:32:06;98602.22;;;27.33;61.02
25664;BME280;13522;50.018;20.014;2023-07-22T09:35:20;98601.17;;;26.96;60.34
25664;BME280;13522;50.018;20.014;2023-07-22T09:38:34;98609.15;;;26.64;61.93
25664;BME280;13522;50.018;20.014;2023-07-22T09:41:47;98611.81;;;26.26;63.40
25664;BME280;13522;50.018;20.014;2023-07-22T09:45:07;98600.20;;;26.85;60.35
25664;BME280;13522;50.018;20.014;2023-07-22T09:48:22;98611.30;;;26.45;60.96
25664;BME280;13522;50.018;20.014;2023-07-22T09:51:39;98598.77;;;26.99;57.80
25664;BME280;13522;50.018;20.014;2023-07-22T09:54:54;98595.33;;;27.52;56.43
25664;BME280;13522;50.018;20.014;2023-07-22T09:58:07;98601.77;;;27.94;57.30
25664;BME280;13522;50.018;20.014;2023-07-22T10:01:24;98604.70;;;27.18;57.46
25664;BME280;13522;50.018;20.014;2023-07-22T10:04:37;98599.07;;;27.24;58.02
25664;BME280;13522;50.018;20.014;2023-07-22T10:07:53;98589.96;;;28.15;54.39
25664;BME280;13522;50.018;20.014;2023-07-22T10:11:07;98593.52;;;27.89;53.78
25664;BME280;13522;50.018;20.014;2023-07-22T10:14:21;98603.73;;;26.14;56.29
25664;BME280;13522;50.018;20.014;2023-07-22T10:17:36;98603.47;;;27.04;58.77
25664;BME280;13522;50.018;20.014;2023-07-22T10:20:49;98595.86;;;27.49;57.08
25664;BME280;13522;50.018;20.014;2023-07-22T10:24:04;98588.42;;;27.23;54.81
25664;BME280;13522;50.018;20.014;2023-07-22T10:27:18;98601.50;;;27.42;56.09
25664;BME280;13522;50.018;20.014;2023-07-22T10:30:31;98606.05;;;26.94;56.91
25664;BME280;13522;50.018;20.014;2023-07-22T10:33:44;98609.30;;;27.34;54.85
25664;BME280;13522;50.018;20.014;2023-07-22T10:36:58;98591.62;;;27.90;51.99
25664;BME280;13522;50.018;20.014;2023-07-22T10:40:26;98594.74;;;27.98;52.07
25664;BME280;13522;50.018;20.014;2023-07-22T10:43:39;98593.88;;;28.24;51.08
25664;BME280;13522;50.018;20.014;2023-07-22T10:47:00;98582.75;;;28.73;51.47
25664;BME280;13522;50.018;20.014;2023-07-22T10:50:14;98588.33;;;28.14;50.15
25664;BME280;13522;50.018;20.014;2023-07-22T10:53:31;98591.01;;;27.56;50.53
25664;BME280;13522;50.018;20.014;2023-07-22T10:56:46;98602.06;;;27.01;54.09
25664;BME280;13522;50.018;20.014;2023-07-22T10:59:59;98610.41;;;26.40;56.19
25664;BME280;13522;50.018;20.014;2023-07-22T11:03:14;98611.04;;;26.63;55.45
25664;BME280;13522;50.018;20.014;2023-07-22T11:06:30;98594.71;;;27.23;53.52
25664;BME280;13522;50.018;20.014;2023-07-22T11:09:43;98591.98;;;27.23;53.79
25664;BME280;13522;50.018;20.014;2023-07-22T11:12:57;98592.56;;;27.04;49.17
25664;BME280;13522;50.018;20.014;2023-07-22T11:16:14;98585.62;;;27.18;50.33
25664;BME280;13522;50.018;20.014;2023-07-22T11:19:27;98585.23;;;27.79;50.91
25664;BME280;13522;50.018;20.014;2023-07-22T11:22:42;98573.11;;;27.65;49.09
25664;BME280;13522;50.018;20.014;2023-07-22T11:25:54;98585.54;;;28.09;50.86
25664;BME280;13522;50.018;20.014;2023-07-22T11:29:08;98583.69;;;28.52;50.47
25664;BME280;13522;50.018;20.014;2023-07-22T11:32:21;98570.58;;;28.54;48.14
25664;BME280;13522;50.018;20.014;2023-07-22T11:35:34;98572.31;;;28.28;47.52
25664;BME280;13522;50.018;20.014;2023-07-22T11:38:46;98561.34;;;28.23;46.98
25664;BME280;13522;50.018;20.014;2023-07-22T11:42:01;98569.27;;;27.39;49.43
25664;BME280;13522;50.018;20.014;2023-07-22T11:45:15;98576.57;;;27.34;51.61
25664;BME280;13522;50.018;20.014;2023-07-22T11:48:28;98585.33;;;27.89;50.01
25664;BME280;13522;50.018;20.014;2023-07-22T11:51:43;98583.13;;;27.86;48.43
25664;BME280;13522;50.018;20.014;2023-07-22T11:54:57;98587.48;;;27.34;50.79
25664;BME280;13522;50.018;20.014;2023-07-22T11:58:13;98583.69;;;27.88;52.44
25664;BME280;13522;50.018;20.014;2023-07-22T12:01:28;98585.81;;;28.08;53.53
25664;BME280;13522;50.018;20.014;2023-07-22T12:04:42;98581.31;;;27.43;51.26
25664;BME280;13522;50.018;20.014;2023-07-22T12:07:57;98579.47;;;27.06;51.89
25664;BME280;13522;50.018;20.014;2023-07-22T12:11:10;98584.06;;;26.45;55.02
25664;BME280;13522;50.018;20.014;2023-07-22T12:14:35;98600.09;;;26.42;58.10
25664;BME280;13522;50.018;20.014;2023-07-22T12:17:50;98579.11;;;25.93;54.29
25664;BME280;13522;50.018;20.014;2023-07-22T12:21:05;98589.44;;;26.07;57.83
25664;BME280;13522;50.018;20.014;2023-07-22T12:24:17;98580.33;;;26.68;58.42
25664;BME280;13522;50.018;20.014;2023-07-22T12:27:29;98569.91;;;27.25;56.74
25664;BME280;13522;50.018;20.014;2023-07-22T12:30:42;98559.96;;;27.62;53.79
25664;BME280;13522;50.018;20.014;2023-07-22T12:33:55;98567.55;;;27.55;53.46
25664;BME280;13522;50.018;20.014;2023-07-22T12:37:08;98571.94;;;27.88;58.21
25664;BME280;13522;50.018;20.014;2023-07-22T12:40:20;98561.85;;;27.88;52.04
25664;BME280;13522;50.018;20.014;2023-07-22T12:43:33;98569.81;;;27.63;50.61
25664;BME280;13522;50.018;20.014;2023-07-22T12:46:47;98569.39;;;27.06;52.95
25664;BME280;13522;50.018;20.014;2023-07-22T12:50:01;98569.48;;;27.33;55.83
25664;BME280;13522;50.018;20.014;2023-07-22T12:53:16;98562.61;;;27.09;57.49
25664;BME280;13522;50.018;20.014;2023-07-22T12:56:31;98562.39;;;27.59;56.91
25664;BME280;13522;50.018;20.014;2023-07-22T12:59:45;98551.61;;;28.00;55.05
25664;BME280;13522;50.018;20.014;2023-07-22T13:03:00;98553.23;;;27.43;58.06
25664;BME280;13522;50.018;20.014;2023-07-22T13:06:15;98549.89;;;27.94;54.31
25664;BME280;13522;50.018;20.014;2023-07-22T13:09:29;98545.22;;;28.21;53.52
25664;BME280;13522;50.018;20.014;2023-07-22T13:12:42;98539.19;;;28.19;52.31
25664;BME280;13522;50.018;20.014;2023-07-22T13:15:55;98542.48;;;28.21;51.85
25664;BME280;13522;50.018;20.014;2023-07-22T13:19:08;98550.94;;;27.62;52.64
25664;BME280;13522;50.018;20.014;2023-07-22T13:22:20;98548.47;;;27.87;51.07
25664;BME280;13522;50.018;20.014;2023-07-22T13:25:33;98545.05;;;28.01;49.33
25664;BME280;13522;50.018;20.014;2023-07-22T13:28:45;98531.76;;;27.83;49.23
25664;BME280;13522;50.018;20.014;2023-07-22T13:31:59;98528.73;;;28.06;50.19
25664;BME280;13522;50.018;20.014;2023-07-22T13:35:12;98530.41;;;28.12;50.19
25664;BME280;13522;50.018;20.014;2023-07-22T13:38:25;98533.93;;;27.81;49.37
25664;BME280;13522;50.018;20.014;2023-07-22T13:41:38;98541.30;;;27.06;51.49
25664;BME280;13522;50.018;20.014;2023-07-22T13:44:52;98545.95;;;26.84;51.67
25664;BME280;13522;50.018;20.014;2023-07-22T13:48:05;98537.59;;;26.52;53.09
25664;BME280;13522;50.018;20.014;2023-07-22T13:51:17;98533.25;;;26.34;53.00
25664;BME280;13522;50.018;20.014;2023-07-22T13:54:30;98541.17;;;26.19;55.23
25664;BME280;13522;50.018;20.014;2023-07-22T13:57:43;98528.06;;;26.54;53.51
25664;BME280;13522;50.018;20.014;2023-07-22T14:00:55;98525.56;;;26.70;54.28
25664;BME280;13522;50.018;20.014;2023-07-22T14:04:08;98530.92;;;26.81;52.05
25664;BME280;13522;50.018;20.014;2023-07-22T14:07:20;98528.27;;;26.48;49.34
25664;BME280;13522;50.018;20.014;2023-07-22T14:10:32;98526.14;;;26.33;49.78
25664;BME280;13522;50.018;20.014;2023-07-22T14:13:45;98518.39;;;26.25;50.55
25664;BME280;13522;50.018;20.014;2023-07-22T14:16:58;98522.62;;;26.54;51.58
25664;BME280;13522;50.018;20.014;2023-07-22T14:20:12;98518.61;;;26.79;50.74
25664;BME280;13522;50.018;20.014;2023-07-22T14:23:25;98522.58;;;26.33;51.48
25664;BME280;13522;50.018;20.014;2023-07-22T14:26:38;98526.02;;;26.07;51.64
25664;BME280;13522;50.018;20.014;2023-07-22T14:29:50;98529.13;;;25.99;52.42
25664;BME280;13522;50.018;20.014;2023-07-22T14:33:03;98536.46;;;25.98;54.11
25664;BME280;13522;50.018;20.014;2023-07-22T14:36:15;98536.62;;;25.92;54.61
25664;BME280;13522;50.018;20.014;2023-07-22T14:39:27;98549.07;;;25.71;56.92
25664;BME280;13522;50.018;20.014;2023-07-22T14:42:39;98542.47;;;25.67;54.70
25664;BME280;13522;50.018;20.014;2023-07-22T14:45:53;98546.17;;;25.61;53.91
25664;BME280;13522;50.018;20.014;2023-07-22T14:49:06;98548.70;;;25.51;54.13
25664;BME280;13522;50.018;20.014;2023-07-22T14:52:19;98545.98;;;25.51;53.96
25664;BME280;13522;50.018;20.014;2023-07-22T14:55:31;98544.35;;;25.38;52.11
25664;BME280;13522;50.018;20.014;2023-07-22T14:58:46;98553.73;;;25.31;51.92
25664;BME280;13522;50.018;20.014;2023-07-22T15:01:59;98555.48;;;25.37;51.05
25664;BME280;13522;50.018;20.014;2023-07-22T15:05:11;98546.63;;;25.30;49.79
25664;BME280;13522;50.018;20.014;2023-07-22T15:08:24;98563.70;;;25.14;51.64
25664;BME280;13522;50.018;20.014;2023-07-22T15:11:36;98561.18;;;24.96;52.00
25664;BME280;13522;50.018;20.014;2023-07-22T15:14:50;98561.55;;;24.87;50.89
25664;BME280;13522;50.018;20.014;2023-07-22T15:18:02;98552.70;;;24.80;52.24
25664;BME280;13522;50.018;20.014;2023-07-22T15:21:14;98561.00;;;24.74;53.77
25664;BME280;13522;50.018;20.014;2023-07-22T15:24:27;98559.19;;;24.56;52.42
25664;BME280;13522;50.018;20.014;2023-07-22T15:27:39;98555.78;;;24.49;53.93
25664;BME280;13522;50.018;20.014;2023-07-22T15:30:52;98557.92;;;24.36;51.92
25664;BME280;13522;50.018;20.014;2023-07-22T15:34:05;98564.54;;;24.28;52.77
25664;BME280;13522;50.018;20.014;2023-07-22T15:37:17;98556.85;;;24.14;52.72
25664;BME280;13522;50.018;20.014;2023-07-22T15:40:31;98564.36;;;24.00;53.29
25664;BME280;13522;50.018;20.014;2023-07-22T15:43:46;98571.25;;;24.02;54.52
25664;BME280;13522;50.018;20.014;2023-07-22T15:46:58;98567.12;;;24.23;54.01
25664;BME280;13522;50.018;20.014;2023-07-22T15:50:12;98552.73;;;24.34;53.11
25664;BME280;13522;50.018;20.014;2023-07-22T15:53:25;98554.02;;;24.43;53.68
25664;BME280;13522;50.018;20.014;2023-07-22T15:56:37;98564.29;;;24.41;53.12
25664;BME280;13522;50.018;20.014;2023-07-22T15:59:49;98550.61;;;24.36;54.99
25664;BME280;13522;50.018;20.014;2023-07-22T16:03:02;98553.89;;;24.27;55.88
25664;BME280;13522;50.018;20.014;2023-07-22T16:06:16;98562.17;;;24.32;57.36
25664;BME280;13522;50.018;20.014;2023-07-22T16:09:30;98565.00;;;24.25;54.91
25664;BME280;13522;50.018;20.014;2023-07-22T16:12:42;98561.09;;;24.21;55.57
25664;BME280;13522;50.018;20.014;2023-07-22T16:15:55;98559.80;;;24.12;53.98
25664;BME280;13522;50.018;20.014;2023-07-22T16:19:07;98553.96;;;23.97;53.76
25664;BME280;13522;50.018;20.014;2023-07-22T16:22:19;98561.98;;;23.92;53.04
25664;BME280;13522;50.018;20.014;2023-07-22T16:25:32;98565.75;;;23.91;54.08
25664;BME280;13522;50.018;20.014;2023-07-22T16:28:45;98556.21;;;23.88;54.96
25664;BME280;13522;50.018;20.014;2023-07-22T16:31:57;98565.16;;;23.89;56.30
25664;BME280;13522;50.018;20.014;2023-07-22T16:35:10;98566.32;;;23.81;54.67
25664;BME280;13522;50.018;20.014;2023-07-22T16:38:22;98576.31;;;23.69;54.88
25664;BME280;13522;50.018;20.014;2023-07-22T16:41:35;98581.86;;;23.63;55.48
25664;BME280;13522;50.018;20.014;2023-07-22T16:44:47;98572.38;;;23.54;56.21